Time;durP1;ratioP1;P1;durP2;ratioP2;P2;SDS_P1;SDS_P2;PMS_P1;PMS_P2;Temp;Humidity;BMP_temperature;BMP_pressure;BME280_temperature;BME280_humidity;BME280_pressure;Samples;Min_cycle;Max_cycle;Signal;HPM_P1;HPM_P2
2022/04/14 00:00:43;;;;;;;17.27;9.63;;;10.10;99.90;;;;;;5195105;28;20340;-70
2022/04/14 00:03:16;;;;;;;14.10;9.25;;;10.10;99.90;;;;;;5193679;28;20056;-70
2022/04/14 00:05:48;;;;;;;16.13;9.57;;;10.00;99.90;;;;;;5191908;28;20046;-72
2022/04/14 00:08:21;;;;;;;14.55;8.57;;;10.00;99.90;;;;;;5194409;28;20053;-72
2022/04/14 00:10:53;;;;;;;19.25;9.30;;;9.90;99.90;;;;;;5207130;28;20041;-72
2022/04/14 00:13:25;;;;;;;16.10;8.95;;;9.80;99.90;;;;;;5193918;28;20052;-72
2022/04/14 00:15:58;;;;;;;15.10;9.38;;;9.70;99.90;;;;;;5189432;28;20500;-72
2022/04/14 00:18:31;;;;;;;13.48;9.07;;;9.60;99.90;;;;;;5189669;28;20041;-71
2022/04/14 00:21:03;;;;;;;14.73;9.98;;;9.60;99.90;;;;;;5193715;28;20486;-73
2022/04/14 00:23:36;;;;;;;22.48;10.38;;;9.50;99.90;;;;;;5191331;28;20053;-72
2022/04/14 00:26:08;;;;;;;15.85;10.40;;;9.50;99.90;;;;;;5188640;28;20136;-73
2022/04/14 00:28:41;;;;;;;17.25;9.88;;;9.50;99.90;;;;;;5195552;28;20072;-71
2022/04/14 00:31:13;;;;;;;18.77;10.48;;;9.40;99.90;;;;;;5173029;28;20528;-71
2022/04/14 00:33:46;;;;;;;15.63;9.57;;;9.40;99.90;;;;;;5197884;28;20073;-72
2022/04/14 00:36:18;;;;;;;15.82;9.52;;;9.40;99.90;;;;;;5199828;28;20708;-72
2022/04/14 00:38:51;;;;;;;15.40;9.10;;;9.40;99.90;;;;;;5187523;28;20108;-70
2022/04/14 00:41:23;;;;;;;19.45;8.82;;;9.40;99.90;;;;;;5199131;28;20577;-71
2022/04/14 00:43:56;;;;;;;18.63;10.90;;;9.50;99.90;;;;;;5187801;28;20042;-72
2022/04/14 00:46:29;;;;;;;13.77;9.98;;;9.40;99.90;;;;;;5201556;28;20053;-71
2022/04/14 00:49:01;;;;;;;18.83;10.30;;;9.40;99.90;;;;;;5200786;28;20041;-72
2022/04/14 00:51:34;;;;;;;20.27;10.35;;;9.40;99.90;;;;;;5200342;28;20060;-72
2022/04/14 00:54:06;;;;;;;23.45;9.75;;;9.40;99.90;;;;;;5196167;28;20041;-72
2022/04/14 00:56:39;;;;;;;18.52;10.60;;;9.40;99.90;;;;;;5197808;28;20512;-71
2022/04/14 00:59:11;;;;;;;15.85;11.18;;;9.40;99.90;;;;;;5195382;28;20050;-71
2022/04/14 01:01:44;;;;;;;16.52;10.27;;;9.30;99.90;;;;;;5183130;28;20044;-71
2022/04/14 01:04:17;;;;;;;17.48;11.13;;;9.30;99.90;;;;;;5190489;28;20057;-71
2022/04/14 01:06:50;;;;;;;22.03;11.90;;;9.40;99.90;;;;;;5175112;28;20037;-72
2022/04/14 01:09:26;;;;;;;19.50;10.90;;;9.30;99.90;;;;;;5192048;28;20576;-72
2022/04/14 01:12:00;;;;;;;17.20;11.10;;;9.20;99.90;;;;;;5193826;28;20053;-71
2022/04/14 01:14:37;;;;;;;17.27;10.27;;;9.30;99.90;;;;;;5185776;28;20563;-71
2022/04/14 01:17:10;;;;;;;17.20;10.38;;;9.40;99.90;;;;;;5185564;28;20045;-72
2022/04/14 01:19:43;;;;;;;17.30;11.18;;;9.50;99.90;;;;;;5177399;28;20042;-72
2022/04/14 01:22:30;;;;;;;18.70;11.27;;;9.60;99.90;;;;;;5187013;28;20046;-71
2022/04/14 01:25:04;;;;;;;18.08;11.07;;;9.50;99.90;;;;;;5195027;28;20052;-71
2022/04/14 01:27:36;;;;;;;18.80;10.63;;;9.50;99.90;;;;;;5193602;28;20037;-71
2022/04/14 01:30:09;;;;;;;21.95;10.73;;;9.60;99.90;;;;;;5188156;28;20373;-72
2022/04/14 01:32:42;;;;;;;17.17;10.95;;;9.50;99.90;;;;;;5176397;28;20049;-71
2022/04/14 01:35:15;;;;;;;16.83;10.60;;;9.50;99.90;;;;;;5190193;28;20072;-71
2022/04/14 01:37:48;;;;;;;17.90;11.63;;;9.50;99.90;;;;;;5170783;28;20859;-72
2022/04/14 01:40:21;;;;;;;19.48;11.13;;;9.60;99.90;;;;;;5192198;28;20045;-71
2022/04/14 01:42:53;;;;;;;14.93;9.52;;;9.60;99.90;;;;;;5193863;28;20038;-71
2022/04/14 01:45:26;;;;;;;13.52;10.18;;;9.60;99.90;;;;;;5186688;28;20942;-71
2022/04/14 01:47:58;;;;;;;17.08;10.68;;;9.70;99.90;;;;;;5171518;28;20060;-72
2022/04/14 01:50:31;;;;;;;15.90;10.65;;;9.70;99.90;;;;;;5187391;28;20413;-71
2022/04/14 01:53:03;;;;;;;15.65;10.50;;;9.70;99.90;;;;;;5190394;28;20072;-71
2022/04/14 01:55:36;;;;;;;16.50;10.75;;;9.70;99.90;;;;;;5171902;28;20045;-71
2022/04/14 01:58:08;;;;;;;16.17;9.65;;;9.70;99.90;;;;;;5197275;28;20421;-72
2022/04/14 02:00:41;;;;;;;16.20;10.68;;;9.80;99.90;;;;;;5194977;28;20080;-72
2022/04/14 02:03:13;;;;;;;13.32;9.45;;;9.80;99.90;;;;;;5196164;28;20041;-71
2022/04/14 02:05:46;;;;;;;16.58;11.27;;;9.70;99.90;;;;;;5197023;28;20413;-72
2022/04/14 02:08:18;;;;;;;15.98;9.52;;;9.70;99.90;;;;;;5194348;28;20513;-73
2022/04/14 02:10:51;;;;;;;14.45;9.90;;;9.80;99.90;;;;;;5179940;28;20056;-72
2022/04/14 02:13:23;;;;;;;16.08;11.02;;;9.70;99.90;;;;;;5194946;28;20127;-72
2022/04/14 02:15:56;;;;;;;17.25;10.48;;;9.80;99.90;;;;;;5196205;28;20049;-72
2022/04/14 02:18:29;;;;;;;20.02;11.32;;;9.80;99.90;;;;;;5200139;28;20049;-72
2022/04/14 02:21:01;;;;;;;15.63;10.35;;;9.80;99.90;;;;;;5200401;28;20045;-71
2022/04/14 02:23:34;;;;;;;15.02;10.23;;;9.60;99.90;;;;;;5192515;28;20534;-71
2022/04/14 02:26:07;;;;;;;13.55;10.27;;;9.50;99.90;;;;;;5194322;28;20533;-71
2022/04/14 02:28:39;;;;;;;15.77;10.50;;;9.50;99.90;;;;;;5198451;28;20903;-72
2022/04/14 02:31:12;;;;;;;17.40;9.85;;;9.40;99.90;;;;;;5197823;28;20650;-71
2022/04/14 02:33:44;;;;;;;12.65;10.23;;;9.30;99.90;;;;;;5197604;28;20966;-71
2022/04/14 02:36:17;;;;;;;18.67;11.13;;;9.30;99.90;;;;;;5165486;28;20100;-72
2022/04/14 02:38:49;;;;;;;15.75;11.05;;;9.30;99.90;;;;;;5196557;28;20476;-72
2022/04/14 02:41:22;;;;;;;16.20;10.13;;;9.20;99.90;;;;;;5199353;28;20096;-72
2022/04/14 02:43:54;;;;;;;17.77;10.95;;;9.10;99.90;;;;;;5194218;28;20052;-73
2022/04/14 02:46:27;;;;;;;17.58;10.52;;;9.10;99.90;;;;;;5195132;28;20596;-71
2022/04/14 02:49:00;;;;;;;14.53;10.07;;;9.10;99.90;;;;;;5190900;28;20060;-72
2022/04/14 02:51:32;;;;;;;17.48;11.38;;;9.10;99.90;;;;;;5191591;28;20051;-71
2022/04/14 02:54:04;;;;;;;13.95;10.05;;;9.10;99.90;;;;;;5197431;28;20148;-72
2022/04/14 02:56:37;;;;;;;18.00;12.30;;;9.10;99.90;;;;;;5196865;28;20069;-72
2022/04/14 02:59:09;;;;;;;22.10;10.93;;;9.00;99.90;;;;;;5196402;28;20040;-72
2022/04/14 03:01:42;;;;;;;17.98;11.55;;;9.00;99.90;;;;;;5187020;28;20067;-71
2022/04/14 03:04:14;;;;;;;16.65;10.68;;;8.90;99.90;;;;;;5196797;28;20052;-72
2022/04/14 03:06:47;;;;;;;15.63;10.60;;;8.80;99.90;;;;;;5195651;28;21086;-73
2022/04/14 03:09:19;;;;;;;13.85;10.48;;;8.80;99.90;;;;;;5194508;28;20436;-70
2022/04/14 03:11:52;;;;;;;14.73;10.75;;;8.90;99.90;;;;;;5177303;28;20514;-72
2022/04/14 03:14:25;;;;;;;16.80;11.53;;;8.90;99.90;;;;;;5177762;28;20057;-71
2022/04/14 03:16:57;;;;;;;15.25;10.48;;;8.90;99.90;;;;;;5194333;28;20574;-72
2022/04/14 03:19:29;;;;;;;15.18;11.25;;;8.90;99.90;;;;;;5198549;28;20116;-72
2022/04/14 03:22:02;;;;;;;18.42;12.73;;;8.80;99.90;;;;;;5198086;28;20053;-70
2022/04/14 03:24:35;;;;;;;17.20;13.07;;;8.70;99.90;;;;;;5170713;28;20056;-71
2022/04/14 03:27:07;;;;;;;17.88;12.32;;;8.70;99.90;;;;;;5176517;28;20409;-72
2022/04/14 03:29:41;;;;;;;17.25;12.00;;;8.60;99.90;;;;;;5187515;28;25882;-71
2022/04/14 03:32:13;;;;;;;15.00;10.52;;;8.60;99.90;;;;;;5183259;28;20095;-71
2022/04/14 03:34:46;;;;;;;16.27;11.45;;;8.60;99.90;;;;;;5186253;28;20067;-72
2022/04/14 03:37:19;;;;;;;14.45;10.57;;;8.60;99.90;;;;;;5188132;28;20314;-71
2022/04/14 03:39:51;;;;;;;14.40;10.13;;;8.50;99.90;;;;;;5189533;28;20053;-71
2022/04/14 03:42:24;;;;;;;16.85;12.40;;;8.50;99.90;;;;;;5185438;28;20049;-71
2022/04/14 03:44:57;;;;;;;14.38;10.63;;;8.50;99.90;;;;;;5192303;28;20040;-72
2022/04/14 03:47:30;;;;;;;;;;;8.50;99.90;;;;;;5190563;28;20074;-71
2022/04/14 03:50:03;;;;;;;18.23;12.35;;;8.40;99.90;;;;;;5194742;28;19929;-71
2022/04/14 03:52:36;;;;;;;17.60;13.05;;;8.40;99.90;;;;;;5192703;28;20523;-71
2022/04/14 03:55:09;;;;;;;21.52;12.27;;;8.40;99.90;;;;;;5188032;28;20057;-70
2022/04/14 03:57:41;;;;;;;19.48;12.30;;;8.30;99.90;;;;;;5184175;28;20053;-71
2022/04/14 04:00:14;;;;;;;17.35;12.07;;;8.30;99.90;;;;;;5186784;28;20041;-71
2022/04/14 04:02:47;;;;;;;22.77;12.70;;;8.30;99.90;;;;;;5188852;28;20049;-71
2022/04/14 04:05:19;;;;;;;17.85;12.15;;;8.20;99.90;;;;;;5192753;28;20049;-70
2022/04/14 04:07:53;;;;;;;16.35;11.73;;;8.20;99.90;;;;;;5190689;28;20056;-70
2022/04/14 04:10:26;;;;;;;18.63;13.27;;;8.20;99.90;;;;;;5180464;28;21153;-71
2022/04/14 04:12:58;;;;;;;17.02;11.45;;;8.20;99.90;;;;;;5173841;28;20052;-70
2022/04/14 04:15:32;;;;;;;;;;;8.20;99.90;;;;;;5190347;28;20045;-71
2022/04/14 04:18:07;;;;;;;17.75;11.75;;;8.10;99.90;;;;;;5193818;28;19921;-71
2022/04/14 04:20:39;;;;;;;19.00;13.07;;;8.10;99.90;;;;;;5186193;28;20537;-71
2022/04/14 04:23:12;;;;;;;23.50;13.35;;;8.10;99.90;;;;;;5192453;28;20041;-70
2022/04/14 04:25:44;;;;;;;20.33;12.82;;;8.10;99.90;;;;;;5174224;28;20561;-71
2022/04/14 04:28:17;;;;;;;16.58;13.63;;;8.10;99.90;;;;;;5186267;28;20416;-70
2022/04/14 04:30:49;;;;;;;22.10;15.05;;;8.10;99.90;;;;;;5196241;28;20048;-70
2022/04/14 04:33:22;;;;;;;19.17;12.90;;;8.10;99.90;;;;;;5193799;28;20048;-70
2022/04/14 04:35:55;;;;;;;17.25;12.88;;;8.10;99.90;;;;;;5197140;28;20049;-70
2022/04/14 04:38:27;;;;;;;18.58;12.40;;;8.20;99.90;;;;;;5185937;28;20912;-70
2022/04/14 04:41:00;;;;;;;16.60;10.88;;;8.10;99.90;;;;;;5190437;28;20061;-71
2022/04/14 04:43:32;;;;;;;16.40;11.98;;;8.10;99.90;;;;;;5167989;28;20584;-71
2022/04/14 04:46:05;;;;;;;18.70;12.60;;;8.10;99.90;;;;;;5190624;28;20579;-70
2022/04/14 04:48:38;;;;;;;20.40;12.73;;;8.10;99.90;;;;;;5182665;28;20053;-73
2022/04/14 04:51:10;;;;;;;24.20;14.88;;;8.10;99.90;;;;;;5157963;28;20045;-71
2022/04/14 04:53:43;;;;;;;27.27;13.63;;;8.10;99.90;;;;;;5186762;28;20645;-71
2022/04/14 04:56:16;;;;;;;21.52;12.55;;;8.10;99.90;;;;;;5180431;28;20104;-71
2022/04/14 04:58:49;;;;;;;24.35;14.10;;;8.10;99.90;;;;;;5167319;28;20049;-71
2022/04/14 05:01:21;;;;;;;19.97;14.20;;;8.10;99.90;;;;;;5175993;28;20056;-71
2022/04/14 05:03:54;;;;;;;21.65;14.55;;;8.00;99.90;;;;;;5188537;28;20814;-71
2022/04/14 05:06:27;;;;;;;25.45;15.25;;;8.10;99.90;;;;;;5188841;28;20041;-71
2022/04/14 05:08:59;;;;;;;19.83;13.90;;;8.10;99.90;;;;;;5194962;28;20067;-72
2022/04/14 05:11:32;;;;;;;22.13;13.73;;;8.10;99.90;;;;;;5191340;28;20068;-70
2022/04/14 05:14:05;;;;;;;25.13;13.55;;;8.10;99.90;;;;;;5176311;28;20045;-71
2022/04/14 05:16:37;;;;;;;24.13;14.35;;;8.20;99.90;;;;;;5178181;28;20053;-71
2022/04/14 05:19:10;;;;;;;21.00;14.57;;;8.40;99.90;;;;;;5177823;28;20045;-70
2022/04/14 05:21:43;;;;;;;26.13;14.82;;;8.50;99.90;;;;;;5178484;28;20045;-72
2022/04/14 05:24:15;;;;;;;20.15;14.07;;;8.50;99.90;;;;;;5198349;28;20045;-72
2022/04/14 05:26:48;;;;;;;18.67;13.33;;;8.60;99.90;;;;;;5183214;28;20053;-71
2022/04/14 05:29:20;;;;;;;22.80;14.20;;;8.70;99.90;;;;;;5195160;28;20819;-71
2022/04/14 05:31:53;;;;;;;20.48;13.18;;;8.80;99.90;;;;;;5194626;28;20064;-71
2022/04/14 05:34:26;;;;;;;19.13;12.73;;;8.90;99.90;;;;;;5201666;28;20049;-72
2022/04/14 05:36:58;;;;;;;20.70;13.15;;;9.00;99.90;;;;;;5199919;28;20064;-71
2022/04/14 05:39:31;;;;;;;24.10;13.52;;;9.10;99.90;;;;;;5172495;28;21639;-72
2022/04/14 05:42:03;;;;;;;19.25;13.10;;;9.20;99.90;;;;;;5180780;28;20056;-71
2022/04/14 05:44:36;;;;;;;21.05;13.32;;;9.30;99.90;;;;;;5194050;28;20045;-71
2022/04/14 05:47:08;;;;;;;26.58;13.43;;;9.40;99.90;;;;;;5176909;28;20045;-70
2022/04/14 05:49:41;;;;;;;24.33;13.45;;;9.60;99.90;;;;;;5177904;28;20064;-70
2022/04/14 05:52:13;;;;;;;24.15;12.25;;;9.80;99.90;;;;;;5189173;28;20061;-71
2022/04/14 05:54:46;;;;;;;18.52;12.60;;;9.90;99.90;;;;;;5187327;28;20060;-71
2022/04/14 05:57:22;;;;;;;22.77;11.45;;;10.10;99.90;;;;;;5173702;28;20071;-72
2022/04/14 05:59:56;;;;;;;20.13;12.82;;;10.20;99.90;;;;;;5182512;28;20048;-73
2022/04/14 06:02:28;;;;;;;22.63;12.00;;;10.40;99.90;;;;;;5169073;28;20072;-73
2022/04/14 06:05:02;;;;;;;24.88;11.10;;;10.70;99.90;;;;;;5180034;28;20045;-70
2022/04/14 06:07:35;;;;;;;21.45;11.13;;;10.90;99.90;;;;;;5187353;28;20045;-71
2022/04/14 06:10:08;;;;;;;16.63;10.63;;;11.10;99.90;;;;;;5188359;28;20623;-71
2022/04/14 06:12:40;;;;;;;18.77;10.65;;;11.20;99.90;;;;;;5196794;28;20061;-71
2022/04/14 06:15:13;;;;;;;18.42;10.77;;;11.40;99.90;;;;;;5194352;28;20045;-71
2022/04/14 06:17:46;;;;;;;17.20;10.63;;;11.60;99.90;;;;;;5149575;28;20049;-71
2022/04/14 06:20:18;;;;;;;19.55;11.18;;;11.80;99.90;;;;;;5179152;28;20044;-71
2022/04/14 06:22:52;;;;;;;28.52;11.73;;;12.00;99.90;;;;;;5184480;28;21045;-71
2022/04/14 06:25:25;;;;;;;;;;;12.20;99.90;;;;;;5181034;28;20048;-72
2022/04/14 06:27:57;;;;;;;21.05;11.20;;;12.30;99.90;;;;;;5178998;28;19951;-72
2022/04/14 06:30:30;;;;;;;18.25;10.15;;;12.40;99.90;;;;;;5177352;28;20501;-72
2022/04/14 06:33:03;;;;;;;20.58;11.45;;;12.60;99.90;;;;;;5181211;28;20038;-71
2022/04/14 06:35:37;;;;;;;18.00;11.10;;;12.70;99.90;;;;;;5169765;28;20045;-72
2022/04/14 06:38:09;;;;;;;21.73;12.02;;;12.90;99.90;;;;;;5185819;28;20508;-72
2022/04/14 06:40:42;;;;;;;17.85;10.52;;;13.00;99.90;;;;;;5166057;28;20072;-70
2022/04/14 06:43:14;;;;;;;22.55;11.77;;;13.20;99.90;;;;;;5195818;28;20055;-73
2022/04/14 06:45:47;;;;;;;20.92;11.57;;;13.40;99.90;;;;;;5178387;28;21047;-72
2022/04/14 06:48:20;;;;;;;24.85;12.23;;;13.50;99.90;;;;;;5188629;28;20053;-72
2022/04/14 06:50:52;;;;;;;19.20;11.75;;;13.60;99.90;;;;;;5186361;28;20060;-72
2022/04/14 06:53:25;;;;;;;17.95;11.88;;;13.80;98.70;;;;;;5184014;28;20733;-73
2022/04/14 06:55:58;;;;;;;28.42;12.73;;;14.00;97.50;;;;;;5173218;28;20037;-73
2022/04/14 06:58:30;;;;;;;21.15;10.80;;;14.10;95.70;;;;;;5169281;28;24424;-72
2022/04/14 07:01:04;;;;;;;19.77;11.55;;;14.30;94.70;;;;;;5191401;28;20042;-72
2022/04/14 07:03:37;;;;;;;22.42;12.68;;;14.40;93.90;;;;;;5160148;28;20060;-72
2022/04/14 07:06:10;;;;;;;18.70;11.23;;;14.50;93.00;;;;;;5175187;28;20056;-74
2022/04/14 07:08:42;;;;;;;18.10;11.07;;;14.70;92.90;;;;;;5164904;28;20048;-73
2022/04/14 07:11:16;;;;;;;18.48;11.00;;;14.70;92.10;;;;;;5188975;28;20084;-73
2022/04/14 07:13:48;;;;;;;22.83;11.32;;;14.90;91.40;;;;;;5180996;28;20052;-72
2022/04/14 07:16:21;;;;;;;18.88;11.00;;;15.00;90.90;;;;;;5174458;28;20041;-73
2022/04/14 07:18:53;;;;;;;19.02;10.95;;;15.20;90.10;;;;;;5171688;28;20046;-73
2022/04/14 07:21:26;;;;;;;18.55;10.75;;;15.20;89.90;;;;;;5180402;28;20045;-72
2022/04/14 07:23:58;;;;;;;17.52;10.52;;;15.50;89.30;;;;;;5170374;28;20465;-72
2022/04/14 07:26:31;;;;;;;20.92;10.70;;;15.60;88.10;;;;;;5179878;28;20053;-74
2022/04/14 07:29:04;;;;;;;25.85;13.27;;;15.70;87.10;;;;;;5177597;28;20539;-72
2022/04/14 07:31:37;;;;;;;23.00;11.87;;;15.90;85.50;;;;;;5167816;28;20062;-72
2022/04/14 07:34:10;;;;;;;26.45;12.45;;;16.10;84.70;;;;;;5152899;28;20060;-73
2022/04/14 07:36:44;;;;;;;21.02;11.27;;;16.10;83.00;;;;;;5156757;28;20064;-72
2022/04/14 07:39:16;;;;;;;;;;;16.20;82.60;;;;;;5181261;28;20064;-72
2022/04/14 07:41:49;;;;;;;20.52;12.27;;;16.40;81.10;;;;;;5173838;28;19939;-73
2022/04/14 07:44:21;;;;;;;22.02;11.52;;;16.50;81.90;;;;;;5200691;28;20045;-73
2022/04/14 07:46:55;;;;;;;24.35;12.25;;;16.60;81.30;;;;;;5192251;28;20850;-73
2022/04/14 07:49:27;;;;;;;23.73;12.27;;;16.70;80.70;;;;;;5176567;28;20052;-73
2022/04/14 07:52:00;;;;;;;26.23;12.48;;;16.80;80.00;;;;;;5197726;28;20930;-71
2022/04/14 07:54:34;;;;;;;22.17;11.75;;;16.90;79.20;;;;;;5195853;28;20064;-72
2022/04/14 07:57:07;;;;;;;22.13;12.65;;;17.00;79.40;;;;;;5202951;28;21226;-73
2022/04/14 07:59:39;;;;;;;22.13;11.60;;;17.10;78.10;;;;;;5199707;28;20045;-73
2022/04/14 08:02:12;;;;;;;23.08;12.57;;;17.30;78.30;;;;;;5187563;28;20803;-72
2022/04/14 08:04:45;;;;;;;25.02;12.93;;;17.40;77.20;;;;;;5189404;28;21333;-73
2022/04/14 08:07:17;;;;;;;24.30;11.90;;;17.50;76.30;;;;;;5197020;28;20059;-73
2022/04/14 08:09:50;;;;;;;23.88;12.35;;;17.60;75.50;;;;;;5197968;28;20045;-73
2022/04/14 08:12:23;;;;;;;24.92;13.00;;;17.60;74.90;;;;;;5204530;28;20143;-71
2022/04/14 08:14:55;;;;;;;24.30;12.45;;;17.60;75.10;;;;;;5199643;28;20049;-72
2022/04/14 08:17:28;;;;;;;20.95;12.48;;;17.60;74.60;;;;;;5200439;28;20476;-72
2022/04/14 08:20:00;;;;;;;34.22;13.13;;;17.70;74.10;;;;;;5192515;28;20520;-73
2022/04/14 08:23:03;;;;;;;26.80;12.40;;;17.70;73.70;;;;;;5198137;28;20045;-73
2022/04/14 08:25:38;;;;;;;22.77;12.02;;;17.90;71.60;;;;;;5184957;28;20057;-73
2022/04/14 08:28:10;;;;;;;23.38;12.82;;;17.90;73.00;;;;;;5190181;28;20049;-72
2022/04/14 08:30:44;;;;;;;27.00;13.23;;;18.00;73.20;;;;;;5191079;28;20053;-72
2022/04/14 08:33:20;;;;;;;29.00;13.25;;;18.10;72.70;;;;;;5202774;28;20489;-72
2022/04/14 08:35:53;;;;;;;24.65;12.85;;;18.20;72.40;;;;;;5179075;28;20053;-72
2022/04/14 08:38:26;;;;;;;21.10;12.13;;;18.20;71.70;;;;;;5191194;28;20044;-72
2022/04/14 08:41:01;;;;;;;27.27;12.65;;;18.20;71.40;;;;;;5180129;28;20669;-73
2022/04/14 08:44:02;;;;;;;32.03;13.55;;;18.20;71.00;;;;;;5184963;28;20047;-74
2022/04/14 08:46:36;;;;;;;26.30;13.10;;;18.20;70.20;;;;;;5198946;28;20048;-72
2022/04/14 08:49:09;;;;;;;23.13;12.88;;;18.20;71.00;;;;;;5201262;28;20052;-71
2022/04/14 08:51:42;;;;;;;28.85;14.90;;;18.30;70.70;;;;;;5194820;28;20052;-72
2022/04/14 08:54:19;;;;;;;30.58;12.85;;;18.40;69.70;;;;;;5200602;28;20060;-72
2022/04/14 08:56:54;;;;;;;26.92;11.80;;;18.40;70.10;;;;;;5198239;28;20769;-73
2022/04/14 08:59:27;;;;;;;25.10;13.13;;;18.50;70.10;;;;;;5183083;28;20064;-73
2022/04/14 09:02:04;;;;;;;25.60;12.98;;;18.50;69.70;;;;;;5193033;28;20045;-73
2022/04/14 09:04:38;;;;;;;27.05;13.38;;;18.60;69.10;;;;;;5193934;28;20049;-73
2022/04/14 09:07:12;;;;;;;26.60;12.55;;;18.70;68.60;;;;;;5203991;28;20051;-73
2022/04/14 09:09:45;;;;;;;24.48;11.82;;;18.60;68.40;;;;;;5204349;28;20037;-72
2022/04/14 09:12:18;;;;;;;22.38;12.65;;;18.60;68.80;;;;;;5208109;28;20049;-71
2022/04/14 09:14:51;;;;;;;25.10;12.35;;;18.70;69.20;;;;;;5202343;28;20689;-71
2022/04/14 09:17:24;;;;;;;24.52;12.02;;;18.80;68.40;;;;;;5207755;28;20083;-72
2022/04/14 09:19:56;;;;;;;26.23;12.93;;;18.90;69.60;;;;;;5190056;28;20049;-73
2022/04/14 09:22:29;;;;;;;23.67;11.07;;;19.00;68.30;;;;;;5206667;28;20099;-72
2022/04/14 09:25:01;;;;;;;27.45;10.55;;;19.00;67.60;;;;;;5209742;28;20049;-73
2022/04/14 09:27:39;;;;;;;18.50;11.30;;;19.10;67.00;;;;;;5208378;28;20045;-72
2022/04/14 09:30:17;;;;;;;19.23;10.60;;;19.20;68.00;;;;;;5205122;28;20633;-73
2022/04/14 09:32:50;;;;;;;20.48;11.02;;;19.20;67.40;;;;;;5192061;28;20045;-72
2022/04/14 09:35:23;;;;;;;23.95;11.18;;;19.30;67.60;;;;;;5202114;28;20056;-72
2022/04/14 09:38:06;;;;;;;20.50;11.15;;;19.50;66.70;;;;;;5204575;28;20052;-72
2022/04/14 09:40:39;;;;;;;33.20;12.40;;;19.50;65.40;;;;;;5207597;28;20060;-73
2022/04/14 09:43:12;;;;;;;21.85;11.02;;;19.40;66.10;;;;;;5191510;28;20417;-73
2022/04/14 09:45:47;;;;;;;20.65;9.73;;;19.40;66.10;;;;;;5203770;28;20049;-72
2022/04/14 09:48:22;;;;;;;20.92;11.07;;;19.50;65.30;;;;;;5191592;28;20041;-72
2022/04/14 09:50:54;;;;;;;20.13;10.77;;;19.40;64.40;;;;;;5200630;28;20505;-72
2022/04/14 09:53:30;;;;;;;19.58;11.40;;;19.50;65.10;;;;;;5211875;28;20049;-73
2022/04/14 09:56:02;;;;;;;21.20;10.23;;;19.50;63.90;;;;;;5192526;28;20657;-73
2022/04/14 09:58:35;;;;;;;18.37;10.93;;;19.50;64.90;;;;;;5205745;28;20045;-73
2022/04/14 10:01:07;;;;;;;20.63;10.70;;;19.60;65.10;;;;;;5184932;28;20057;-72
2022/04/14 10:03:40;;;;;;;21.10;11.27;;;19.70;64.00;;;;;;5204655;28;20396;-72
2022/04/14 10:06:13;;;;;;;22.88;10.23;;;19.70;63.70;;;;;;5208925;28;20280;-72
2022/04/14 10:08:51;;;;;;;24.85;11.85;;;19.80;63.70;;;;;;5207661;28;20080;-71
2022/04/14 10:11:35;;;;;;;15.52;9.93;;;19.80;62.80;;;;;;5208485;28;20125;-72
2022/04/14 10:14:12;;;;;;;16.27;9.05;;;19.80;63.50;;;;;;5201899;28;20080;-72
2022/04/14 10:16:46;;;;;;;17.15;9.43;;;19.90;63.50;;;;;;5203713;28;20592;-72
2022/04/14 10:19:19;;;;;;;20.58;9.40;;;20.20;63.20;;;;;;5200472;28;20048;-72
2022/04/14 10:21:52;;;;;;;17.42;9.52;;;20.30;62.90;;;;;;5200167;28;20042;-72
2022/04/14 10:24:26;;;;;;;14.73;8.52;;;20.40;61.70;;;;;;5204024;28;20042;-72
2022/04/14 10:26:59;;;;;;;;;;;20.40;61.40;;;;;;5183914;28;20052;-70
2022/04/14 10:29:32;;;;;;;13.35;7.55;;;20.40;60.00;;;;;;5204669;28;19924;-71
2022/04/14 10:32:06;;;;;;;14.60;8.90;;;20.50;61.00;;;;;;5204263;28;20049;-72
2022/04/14 10:34:40;;;;;;;16.92;8.60;;;20.60;59.80;;;;;;5196472;28;21935;-73
2022/04/14 10:37:18;;;;;;;;;;;20.70;60.20;;;;;;5205408;28;20042;-73
2022/04/14 10:39:50;;;;;;;15.63;9.20;;;20.70;59.30;;;;;;5205764;28;19921;-73
2022/04/14 10:42:26;;;;;;;21.87;11.07;;;20.90;59.80;;;;;;5204175;28;20049;-72
2022/04/14 10:44:58;;;;;;;13.77;8.45;;;20.80;58.90;;;;;;5208684;28;20296;-72
2022/04/14 10:47:43;;;;;;;16.75;8.55;;;20.80;59.10;;;;;;5183109;28;20047;-73
2022/04/14 10:50:19;;;;;;;18.83;8.43;;;21.00;59.20;;;;;;5201879;28;20437;-74
2022/04/14 10:53:17;;;;;;;16.77;8.73;;;21.20;59.20;;;;;;5190270;28;20543;-72
2022/04/14 10:55:50;;;;;;;16.90;8.45;;;21.30;57.90;;;;;;5205111;28;20080;-73
2022/04/14 10:58:29;;;;;;;14.82;7.45;;;21.50;59.10;;;;;;5203176;28;20045;-71
2022/04/14 11:01:01;;;;;;;13.13;8.50;;;21.70;58.80;;;;;;5188843;28;20045;-73
2022/04/14 11:03:53;;;;;;;18.88;8.43;;;22.00;58.70;;;;;;5166688;28;20048;-73
2022/04/14 11:06:41;;;;;;;13.60;8.25;;;22.20;56.70;;;;;;5208407;28;20049;-73
2022/04/14 11:09:39;;;;;;;19.13;9.32;;;22.40;56.50;;;;;;5202782;28;20041;-74
2022/04/14 11:12:35;;;;;;;15.38;9.32;;;22.60;55.00;;;;;;5207114;28;20045;-71
2022/04/14 11:15:09;;;;;;;14.23;8.10;;;22.70;55.90;;;;;;5190357;28;20053;-73
2022/04/14 11:17:53;;;;;;;15.07;7.85;;;22.80;56.30;;;;;;5205313;28;20605;-72
2022/04/14 11:20:30;;;;;;;15.98;8.50;;;22.90;55.10;;;;;;5192701;28;20056;-72
2022/04/14 11:23:12;;;;;;;15.32;7.78;;;23.20;54.90;;;;;;5187600;28;20056;-72
2022/04/14 11:25:50;;;;;;;11.65;7.10;;;23.60;54.50;;;;;;5204597;28;20037;-74
2022/04/14 11:28:26;;;;;;;17.38;10.00;;;24.20;53.50;;;;;;5190906;28;20498;-74
2022/04/14 11:31:01;;;;;;;13.88;8.38;;;24.30;52.00;;;;;;5190427;28;20057;-73
2022/04/14 11:33:36;;;;;;;14.85;8.07;;;24.40;52.60;;;;;;5172157;28;20903;-74
2022/04/14 11:36:18;;;;;;;13.77;8.50;;;24.60;52.70;;;;;;5206753;28;20448;-72
2022/04/14 11:39:04;;;;;;;20.10;8.88;;;24.80;51.90;;;;;;5199798;28;20055;-74
2022/04/14 11:41:45;;;;;;;12.63;8.27;;;25.00;51.90;;;;;;5203235;28;20050;-73
2022/04/14 11:44:31;;;;;;;19.23;10.38;;;25.30;51.40;;;;;;5168540;28;20048;-74
2022/04/14 11:47:07;;;;;;;13.60;8.82;;;25.40;50.40;;;;;;5173689;28;20052;-71
2022/04/14 11:49:40;;;;;;;18.08;8.10;;;25.50;51.30;;;;;;5185293;28;20050;-73
2022/04/14 11:52:13;;;;;;;15.57;8.32;;;25.60;51.10;;;;;;5196405;28;20508;-73
2022/04/14 11:54:46;;;;;;;14.27;8.35;;;25.70;51.00;;;;;;5198447;28;20385;-74
2022/04/14 11:57:22;;;;;;;15.02;10.43;;;25.90;50.70;;;;;;5179539;28;20053;-72
2022/04/14 12:00:09;;;;;;;13.75;9.35;;;25.90;50.00;;;;;;5185430;28;20064;-74
2022/04/14 12:02:52;;;;;;;22.88;8.02;;;26.00;48.40;;;;;;5203055;28;20050;-72
2022/04/14 12:05:25;;;;;;;18.17;8.13;;;25.90;50.60;;;;;;5183702;28;20045;-73
2022/04/14 12:08:08;;;;;;;13.03;9.23;;;26.20;50.90;;;;;;5196178;28;20041;-72
2022/04/14 12:10:40;;;;;;;20.02;10.13;;;26.50;48.30;;;;;;5204984;28;20059;-74
2022/04/14 12:13:13;;;;;;;19.63;10.67;;;26.40;49.10;;;;;;5203710;28;20057;-73
2022/04/14 12:16:10;;;;;;;16.50;8.48;;;26.30;48.60;;;;;;5184326;28;20048;-72
2022/04/14 12:18:50;;;;;;;16.38;8.68;;;25.80;47.60;;;;;;5199901;28;20041;-73
2022/04/14 12:21:24;;;;;;;11.95;7.50;;;25.50;48.20;;;;;;5204896;28;20169;-74
2022/04/14 12:23:59;;;;;;;15.98;8.63;;;25.50;49.50;;;;;;5188063;28;21040;-73
2022/04/14 12:26:35;;;;;;;11.75;7.03;;;25.80;48.90;;;;;;5200633;28;20057;-73
2022/04/14 12:29:08;;;;;;;13.10;8.65;;;26.00;48.90;;;;;;5198990;28;20060;-73
2022/04/14 12:31:45;;;;;;;12.90;7.95;;;26.00;47.40;;;;;;5202831;28;20057;-74
2022/04/14 12:34:17;;;;;;;12.07;6.78;;;26.20;47.30;;;;;;5199982;28;20557;-72
2022/04/14 12:37:12;;;;;;;9.85;6.22;;;26.40;47.40;;;;;;5191099;28;20068;-74
2022/04/14 12:39:58;;;;;;;12.82;6.53;;;26.80;46.10;;;;;;5195312;28;20417;-73
2022/04/14 12:42:35;;;;;;;9.15;5.78;;;26.80;44.80;;;;;;5192848;28;20076;-71
2022/04/14 12:45:15;;;;;;;9.07;5.88;;;27.30;46.30;;;;;;5193842;28;20049;-72
2022/04/14 12:47:48;;;;;;;10.40;6.75;;;27.60;45.80;;;;;;5203268;28;20953;-71
2022/04/14 12:50:21;;;;;;;11.07;6.25;;;27.80;45.10;;;;;;5193393;28;20057;-73
2022/04/14 12:52:57;;;;;;;15.03;8.63;;;28.00;44.80;;;;;;5190718;28;20048;-73
2022/04/14 12:55:32;;;;;;;16.42;7.30;;;28.10;44.00;;;;;;5184368;28;20302;-73
2022/04/14 12:58:13;;;;;;;10.55;7.22;;;28.10;44.30;;;;;;5201255;28;20048;-73
2022/04/14 13:00:45;;;;;;;8.68;5.70;;;28.20;43.80;;;;;;5197396;28;20152;-73
2022/04/14 13:03:19;;;;;;;9.13;5.57;;;28.10;44.00;;;;;;5181052;28;20048;-73
2022/04/14 13:05:51;;;;;;;10.90;5.93;;;27.80;44.50;;;;;;5184333;28;20050;-73
2022/04/14 13:08:34;;;;;;;10.75;7.15;;;27.80;44.50;;;;;;5187124;28;20049;-73
2022/04/14 13:11:07;;;;;;;12.50;7.75;;;27.70;43.30;;;;;;5188615;28;20053;-73